Time;durP1;ratioP1;P1;durP2;ratioP2;P2;SDS_P1;SDS_P2;PMS_P1;PMS_P2;Temp;Humidity;BMP_temperature;BMP_pressure;BME280_temperature;BME280_humidity;BME280_pressure;Samples;Min_cycle;Max_cycle;Signal;HPM_P1;HPM_P2
2021/09/26 00:01:34;;;;;;;34.20;29.48;;;;;;;;;;5069475;28;20052;-69
2021/09/26 00:04:00;;;;;;;35.20;29.48;;;;;;;;;;5064639;28;20036;-69
2021/09/26 00:06:26;;;;;;;35.95;28.75;;;;;;;;;;5069697;28;20037;-69
2021/09/26 00:08:52;;;;;;;35.83;29.05;;;;;;;;;;5063076;28;20051;-69
2021/09/26 00:11:18;;;;;;;36.85;30.00;;;;;;;;;;5069366;28;20037;-69
2021/09/26 00:13:44;;;;;;;35.95;29.65;;;;;;;;;;5064223;28;20126;-69
2021/09/26 00:16:11;;;;;;;35.78;30.30;;;;;;;;;;5068352;28;20078;-69
2021/09/26 00:18:37;;;;;;;36.88;30.25;;;;;;;;;;5071913;28;20396;-69
2021/09/26 00:21:03;;;;;;;35.67;27.75;;;;;;;;;;5071165;28;20043;-69
2021/09/26 00:23:32;;;;;;;36.55;30.75;;;;;;;;;;5080346;28;20051;-69
2021/09/26 00:25:59;;;;;;;39.08;31.50;;;;;;;;;;5068647;28;20048;-69
2021/09/26 00:28:25;;;;;;;38.83;30.30;;;;;;;;;;5074331;28;20032;-69
2021/09/26 00:30:51;;;;;;;35.25;30.15;;;;;;;;;;5069487;28;20505;-69
2021/09/26 00:33:17;;;;;;;39.03;30.70;;;;;;;;;;5075802;28;20128;-69
2021/09/26 00:35:43;;;;;;;39.50;31.30;;;;;;;;;;5068362;28;20083;-69
2021/09/26 00:38:10;;;;;;;34.05;29.05;;;;;;;;;;5076364;28;20094;-69
2021/09/26 00:40:37;;;;;;;41.78;31.02;;;;;;;;;;5068041;28;20131;-69
2021/09/26 00:43:03;;;;;;;36.83;29.38;;;;;;;;;;5078624;28;20035;-69
2021/09/26 00:45:29;;;;;;;35.50;28.33;;;;;;;;;;5074629;28;20040;-69
2021/09/26 00:47:55;;;;;;;39.10;30.50;;;;;;;;;;5080870;28;20040;-69
2021/09/26 00:50:22;;;;;;;38.83;31.58;;;;;;;;;;5069514;28;20116;-69
2021/09/26 00:52:49;;;;;;;38.15;31.25;;;;;;;;;;5069824;28;20496;-69
2021/09/26 00:55:16;;;;;;;40.28;31.58;;;;;;;;;;5053486;28;20403;-69
2021/09/26 00:57:43;;;;;;;39.30;30.98;;;;;;;;;;5073169;28;20243;-69
2021/09/26 01:00:10;;;;;;;39.38;31.17;;;;;;;;;;5074516;28;20649;-69
2021/09/26 01:02:36;;;;;;;49.00;34.50;;;;;;;;;;5068979;28;20040;-69
2021/09/26 01:05:03;;;;;;;42.47;33.53;;;;;;;;;;5072733;28;20062;-69
2021/09/26 01:07:33;;;;;;;45.97;33.25;;;;;;;;;;5069761;28;20059;-69
2021/09/26 01:10:08;;;;;;;39.47;30.08;;;;;;;;;;5088258;28;20048;-69
2021/09/26 01:12:40;;;;;;;38.15;31.13;;;;;;;;;;5067282;28;20075;-69
2021/09/26 01:15:20;;;;;;;40.38;33.13;;;;;;;;;;5076525;28;20033;-69
2021/09/26 01:17:52;;;;;;;40.70;31.85;;;;;;;;;;5077280;28;20097;-69
2021/09/26 01:20:36;;;;;;;37.50;31.02;;;;;;;;;;5079054;28;20342;-69
2021/09/26 01:23:05;;;;;;;40.10;30.65;;;;;;;;;;5051255;28;20055;-69
2021/09/26 01:25:50;;;;;;;40.30;31.58;;;;;;;;;;5077090;28;20500;-69
2021/09/26 01:28:16;;;;;;;42.83;31.83;;;;;;;;;;5069130;28;20076;-69
2021/09/26 01:30:55;;;;;;;38.80;30.70;;;;;;;;;;5073652;28;20044;-69
2021/09/26 01:33:24;;;;;;;46.45;34.28;;;;;;;;;;5067367;28;20408;-69
2021/09/26 01:36:07;;;;;;;48.17;35.15;;;;;;;;;;5081760;28;20127;-69
2021/09/26 01:38:37;;;;;;;52.88;35.13;;;;;;;;;;5057917;28;20063;-69
2021/09/26 01:41:09;;;;;;;48.92;33.78;;;;;;;;;;5071446;28;20040;-69
2021/09/26 01:43:39;;;;;;;38.22;30.88;;;;;;;;;;5074480;28;20067;-69
2021/09/26 01:46:07;;;;;;;43.40;32.05;;;;;;;;;;5074036;28;20511;-69
2021/09/26 01:48:35;;;;;;;42.60;32.40;;;;;;;;;;5074973;28;20043;-69
2021/09/26 01:51:02;;;;;;;44.40;32.90;;;;;;;;;;5075256;28;20036;-69
2021/09/26 01:53:29;;;;;;;46.00;33.60;;;;;;;;;;5074387;28;20121;-69
2021/09/26 01:55:55;;;;;;;60.30;39.53;;;;;;;;;;5070976;28;20108;-69
2021/09/26 01:58:21;;;;;;;51.15;35.03;;;;;;;;;;5076764;28;20047;-69
2021/09/26 02:00:47;;;;;;;49.58;33.60;;;;;;;;;;5074098;28;20040;-69
2021/09/26 02:03:14;;;;;;;64.55;40.95;;;;;;;;;;5070653;28;20555;-69
2021/09/26 02:05:41;;;;;;;63.95;37.55;;;;;;;;;;5076148;28;20400;-69
2021/09/26 02:08:07;;;;;;;57.33;37.20;;;;;;;;;;5070655;28;20171;-69
2021/09/26 02:10:34;;;;;;;50.67;34.33;;;;;;;;;;5072295;28;20125;-69
2021/09/26 02:13:01;;;;;;;52.50;34.78;;;;;;;;;;5071531;28;20039;-69
2021/09/26 02:15:27;;;;;;;53.38;35.63;;;;;;;;;;5071022;28;20457;-69
2021/09/26 02:17:54;;;;;;;47.35;34.47;;;;;;;;;;5075828;28;20040;-69
2021/09/26 02:20:21;;;;;;;43.33;32.83;;;;;;;;;;5076666;28;20480;-69
2021/09/26 02:22:48;;;;;;;56.05;37.35;;;;;;;;;;5077162;28;20425;-69
2021/09/26 02:25:15;;;;;;;62.55;40.33;;;;;;;;;;5072956;28;20040;-69
2021/09/26 02:27:41;;;;;;;52.00;35.85;;;;;;;;;;5083979;28;20043;-69
2021/09/26 02:30:08;;;;;;;76.93;42.30;;;;;;;;;;5067765;28;20040;-69
2021/09/26 02:32:34;;;;;;;79.35;42.03;;;;;;;;;;5077790;28;20076;-69
2021/09/26 02:35:00;;;;;;;66.72;39.85;;;;;;;;;;5069704;28;20067;-70
2021/09/26 02:37:26;;;;;;;45.30;34.50;;;;;;;;;;5080687;28;20325;-70
2021/09/26 02:39:53;;;;;;;45.33;32.65;;;;;;;;;;5070676;28;20382;-70
2021/09/26 02:42:37;;;;;;;49.58;35.53;;;;;;;;;;5069293;28;20040;-70
2021/09/26 02:45:27;;;;;;;38.65;32.15;;;;;;;;;;5067358;28;20489;-70
2021/09/26 02:47:58;;;;;;;45.50;33.90;;;;;;;;;;5071685;28;20408;-70
2021/09/26 02:50:25;;;;;;;48.33;34.53;;;;;;;;;;5068973;28;20523;-70
2021/09/26 02:52:52;;;;;;;99.55;46.60;;;;;;;;;;5074378;28;20059;-70
2021/09/26 02:55:18;;;;;;;60.60;38.67;;;;;;;;;;5071191;28;20048;-70
2021/09/26 02:57:45;;;;;;;82.15;38.67;;;;;;;;;;5071699;28;20541;-70
2021/09/26 03:00:11;;;;;;;156.45;51.88;;;;;;;;;;5066834;28;20071;-68
2021/09/26 03:02:38;;;;;;;101.10;47.53;;;;;;;;;;5081552;28;20451;-68
2021/09/26 03:05:05;;;;;;;84.63;43.20;;;;;;;;;;5064106;28;20048;-68
2021/09/26 03:07:31;;;;;;;128.38;50.80;;;;;;;;;;5069797;28;20044;-68
2021/09/26 03:09:57;;;;;;;88.95;47.17;;;;;;;;;;5072096;28;20062;-69
2021/09/26 03:12:24;;;;;;;142.65;54.90;;;;;;;;;;5065150;28;20032;-69
2021/09/26 03:14:51;;;;;;;90.82;49.60;;;;;;;;;;5082617;28;20050;-69
2021/09/26 03:17:17;;;;;;;87.20;49.55;;;;;;;;;;5063533;28;20184;-69
2021/09/26 03:19:43;;;;;;;108.70;54.28;;;;;;;;;;5067433;28;20048;-69
2021/09/26 03:22:09;;;;;;;80.22;47.15;;;;;;;;;;5068956;28;20040;-69
2021/09/26 03:24:36;;;;;;;96.05;50.70;;;;;;;;;;5070128;28;20045;-69
2021/09/26 03:27:04;;;;;;;79.65;47.05;;;;;;;;;;5066016;28;20048;-69
2021/09/26 03:29:34;;;;;;;92.82;47.47;;;;;;;;;;5073857;28;20368;-69
2021/09/26 03:32:00;;;;;;;84.22;48.33;;;;;;;;;;5055082;28;20048;-69
2021/09/26 03:34:27;;;;;;;98.15;49.80;;;;;;;;;;5073590;28;20283;-69
2021/09/26 03:36:53;;;;;;;94.45;49.50;;;;;;;;;;5064738;28;20061;-69
2021/09/26 03:39:19;;;;;;;73.88;42.85;;;;;;;;;;5078633;28;20044;-69
2021/09/26 03:41:45;;;;;;;98.00;47.90;;;;;;;;;;5067373;28;20147;-69
2021/09/26 03:44:11;;;;;;;87.80;47.78;;;;;;;;;;5075617;28;20049;-69
2021/09/26 03:46:37;;;;;;;71.00;42.25;;;;;;;;;;5075719;28;20493;-69
2021/09/26 03:49:03;;;;;;;108.20;49.92;;;;;;;;;;5072800;28;20106;-69
2021/09/26 03:51:29;;;;;;;74.05;39.08;;;;;;;;;;5070789;28;20388;-69
2021/09/26 03:53:55;;;;;;;85.18;45.03;;;;;;;;;;5059936;28;20235;-69
2021/09/26 03:56:21;;;;;;;88.93;47.05;;;;;;;;;;5068047;28;20045;-69
2021/09/26 03:58:47;;;;;;;112.72;48.00;;;;;;;;;;5064958;28;20396;-69
2021/09/26 04:01:13;;;;;;;82.80;45.80;;;;;;;;;;5057511;28;20476;-69
2021/09/26 04:03:39;;;;;;;109.10;48.33;;;;;;;;;;5070445;28;20052;-69
2021/09/26 04:06:09;;;;;;;76.35;43.88;;;;;;;;;;5067946;28;20048;-69
2021/09/26 04:08:36;;;;;;;109.35;48.53;;;;;;;;;;5065274;28;20101;-69
2021/09/26 04:11:02;;;;;;;93.97;44.85;;;;;;;;;;5068029;28;20044;-69
2021/09/26 04:13:28;;;;;;;107.35;50.03;;;;;;;;;;5068910;28;20048;-69
2021/09/26 04:15:54;;;;;;;104.30;49.75;;;;;;;;;;5069406;28;20041;-69
2021/09/26 04:18:20;;;;;;;63.13;41.80;;;;;;;;;;5062120;28;20043;-68
2021/09/26 04:20:46;;;;;;;70.03;41.17;;;;;;;;;;5068886;28;20046;-68
2021/09/26 04:23:12;;;;;;;54.17;38.40;;;;;;;;;;5070881;28;20039;-68
2021/09/26 04:25:38;;;;;;;71.57;39.33;;;;;;;;;;5074111;28;20048;-68
2021/09/26 04:28:05;;;;;;;75.20;43.45;;;;;;;;;;5068493;28;20127;-68
2021/09/26 04:30:31;;;;;;;68.22;41.03;;;;;;;;;;5066055;28;20498;-68
2021/09/26 04:32:57;;;;;;;55.83;38.08;;;;;;;;;;5072352;28;20060;-70
2021/09/26 04:35:23;;;;;;;50.15;34.13;;;;;;;;;;5066756;28;20123;-69
2021/09/26 04:37:52;;;;;;;59.20;37.42;;;;;;;;;;5057230;28;20472;-69
2021/09/26 04:40:18;;;;;;;55.10;37.80;;;;;;;;;;5063285;28;20066;-69
2021/09/26 04:42:44;;;;;;;67.25;39.17;;;;;;;;;;5066960;28;20660;-69
2021/09/26 04:45:11;;;;;;;83.20;44.30;;;;;;;;;;5065300;28;20039;-69
2021/09/26 04:47:37;;;;;;;105.43;46.63;;;;;;;;;;5069750;28;20083;-69
2021/09/26 04:50:05;;;;;;;84.32;43.28;;;;;;;;;;5068345;28;20036;-69
2021/09/26 04:52:31;;;;;;;66.45;39.92;;;;;;;;;;5066791;28;20036;-69
2021/09/26 04:54:57;;;;;;;83.30;43.67;;;;;;;;;;5065183;28;20140;-69
2021/09/26 04:57:24;;;;;;;108.70;47.58;;;;;;;;;;5070605;28;20044;-70
2021/09/26 04:59:50;;;;;;;76.72;42.17;;;;;;;;;;5063128;28;20056;-69
2021/09/26 05:02:16;;;;;;;63.50;38.92;;;;;;;;;;5069712;28;20045;-69
2021/09/26 05:04:42;;;;;;;96.07;45.35;;;;;;;;;;5068354;28;20044;-69
2021/09/26 05:07:08;;;;;;;84.68;42.25;;;;;;;;;;5068608;28;20484;-69
2021/09/26 05:09:34;;;;;;;65.57;39.35;;;;;;;;;;5071956;28;20047;-69
2021/09/26 05:12:00;;;;;;;58.22;36.95;;;;;;;;;;5065695;28;20040;-70
2021/09/26 05:14:26;;;;;;;50.72;34.72;;;;;;;;;;5074440;28;20064;-70
2021/09/26 05:16:53;;;;;;;64.05;38.80;;;;;;;;;;5078038;28;20056;-70
2021/09/26 05:19:19;;;;;;;55.63;35.58;;;;;;;;;;5076581;28;20107;-70
2021/09/26 05:21:45;;;;;;;77.43;42.22;;;;;;;;;;5068383;28;20052;-70
2021/09/26 05:24:11;;;;;;;77.22;40.15;;;;;;;;;;5072883;28;20481;-70
2021/09/26 05:26:37;;;;;;;59.13;38.17;;;;;;;;;;5064708;28;20049;-70
2021/09/26 05:29:06;;;;;;;63.47;38.15;;;;;;;;;;5056574;28;20547;-70
2021/09/26 05:31:32;;;;;;;54.35;36.17;;;;;;;;;;5073312;28;20435;-70
2021/09/26 05:33:58;;;;;;;51.47;33.97;;;;;;;;;;5074440;28;20045;-70
2021/09/26 05:36:25;;;;;;;55.55;34.13;;;;;;;;;;5066641;28;20032;-70
2021/09/26 05:38:52;;;;;;;53.85;35.30;;;;;;;;;;5081572;28;20040;-70
2021/09/26 05:41:18;;;;;;;65.03;36.97;;;;;;;;;;5068500;28;20159;-70
2021/09/26 05:43:44;;;;;;;59.58;36.22;;;;;;;;;;5073579;28;20039;-70
2021/09/26 05:46:10;;;;;;;74.18;40.10;;;;;;;;;;5071638;28;20479;-70
2021/09/26 05:48:36;;;;;;;65.20;35.80;;;;;;;;;;5071673;28;20045;-70
2021/09/26 05:51:02;;;;;;;82.82;38.78;;;;;;;;;;5071598;28;20044;-69
2021/09/26 05:53:28;;;;;;;82.43;39.70;;;;;;;;;;5068081;28;20060;-69
2021/09/26 05:55:54;;;;;;;52.25;33.10;;;;;;;;;;5075051;28;20377;-69
2021/09/26 05:58:21;;;;;;;53.13;35.78;;;;;;;;;;5072910;28;20481;-69
2021/09/26 06:00:47;;;;;;;63.53;37.85;;;;;;;;;;5057655;28;20044;-70
2021/09/26 06:03:14;;;;;;;65.03;38.55;;;;;;;;;;5067293;28;20045;-69
2021/09/26 06:05:41;;;;;;;57.92;35.22;;;;;;;;;;5070734;28;20054;-69
2021/09/26 06:08:07;;;;;;;52.70;33.63;;;;;;;;;;5072991;28;20036;-69
2021/09/26 06:10:33;;;;;;;65.05;38.88;;;;;;;;;;5074503;28;20489;-69
2021/09/26 06:13:00;;;;;;;70.18;37.50;;;;;;;;;;5068357;28;20044;-69
2021/09/26 06:15:26;;;;;;;79.50;40.15;;;;;;;;;;5073738;28;20115;-70
2021/09/26 06:17:52;;;;;;;60.50;36.88;;;;;;;;;;5055043;28;20044;-70
2021/09/26 06:20:18;;;;;;;53.85;34.22;;;;;;;;;;5068306;28;20052;-70
2021/09/26 06:22:44;;;;;;;48.92;35.15;;;;;;;;;;5063985;28;20028;-70
2021/09/26 06:25:11;;;;;;;55.40;34.45;;;;;;;;;;5074441;28;20494;-70
2021/09/26 06:27:37;;;;;;;51.05;34.05;;;;;;;;;;5052340;28;20048;-70
2021/09/26 06:30:04;;;;;;;54.53;34.40;;;;;;;;;;5070589;28;20040;-70
2021/09/26 06:32:31;;;;;;;55.78;35.95;;;;;;;;;;5077633;28;20500;-70
2021/09/26 06:34:59;;;;;;;45.95;33.33;;;;;;;;;;5067263;28;20063;-69
2021/09/26 06:37:25;;;;;;;46.60;31.83;;;;;;;;;;5073841;28;20072;-69
2021/09/26 06:39:51;;;;;;;40.70;31.73;;;;;;;;;;5064795;28;20084;-69
2021/09/26 06:42:17;;;;;;;39.05;31.75;;;;;;;;;;5074015;28;20044;-69
2021/09/26 06:44:43;;;;;;;41.58;31.23;;;;;;;;;;5064930;28;20048;-70
2021/09/26 06:47:09;;;;;;;43.85;31.77;;;;;;;;;;5077351;28;20048;-70
2021/09/26 06:49:35;;;;;;;40.78;29.50;;;;;;;;;;5071741;28;20150;-70
2021/09/26 06:52:02;;;;;;;39.10;31.45;;;;;;;;;;5074865;28;20036;-70
2021/09/26 06:54:28;;;;;;;35.45;27.85;;;;;;;;;;5066782;28;20052;-70
2021/09/26 06:56:54;;;;;;;28.75;24.55;;;;;;;;;;5079818;28;20048;-69
2021/09/26 06:59:20;;;;;;;28.77;25.02;;;;;;;;;;5067577;28;20183;-69
2021/09/26 07:01:46;;;;;;;29.92;25.63;;;;;;;;;;5076477;28;20033;-69
2021/09/26 07:04:12;;;;;;;28.27;23.63;;;;;;;;;;5075312;28;20036;-69
2021/09/26 07:06:38;;;;;;;31.92;27.83;;;;;;;;;;5075844;28;20059;-69
2021/09/26 07:09:04;;;;;;;26.05;23.48;;;;;;;;;;5071150;28;20044;-69
2021/09/26 07:11:30;;;;;;;23.35;20.98;;;;;;;;;;5069709;28;20123;-69
2021/09/26 07:13:56;;;;;;;27.08;23.83;;;;;;;;;;5075438;28;20040;-69
2021/09/26 07:16:22;;;;;;;24.58;22.17;;;;;;;;;;5065227;28;20147;-69
2021/09/26 07:18:49;;;;;;;25.55;22.45;;;;;;;;;;5062578;28;20044;-69
2021/09/26 07:21:15;;;;;;;25.63;22.48;;;;;;;;;;5067493;28;20422;-69
2021/09/26 07:23:42;;;;;;;25.75;23.02;;;;;;;;;;5072055;28;20044;-69
2021/09/26 07:26:08;;;;;;;23.35;20.95;;;;;;;;;;5072846;28;20074;-70
2021/09/26 07:28:34;;;;;;;21.10;18.70;;;;;;;;;;5067826;28;20125;-69
2021/09/26 07:31:00;;;;;;;18.88;17.08;;;;;;;;;;5060802;28;20052;-69
2021/09/26 07:33:27;;;;;;;21.27;19.00;;;;;;;;;;5074722;28;20056;-69
2021/09/26 07:35:53;;;;;;;19.65;17.70;;;;;;;;;;5065543;28;20388;-69
2021/09/26 07:38:19;;;;;;;16.77;15.00;;;;;;;;;;5070287;28;20049;-69
2021/09/26 07:40:45;;;;;;;18.30;16.60;;;;;;;;;;5074181;28;20745;-70
2021/09/26 07:43:11;;;;;;;18.92;17.13;;;;;;;;;;5069420;28;20131;-70
2021/09/26 07:45:37;;;;;;;18.52;16.67;;;;;;;;;;5068178;28;20083;-69
2021/09/26 07:48:04;;;;;;;17.73;15.98;;;;;;;;;;5070684;28;20477;-69
2021/09/26 07:50:31;;;;;;;16.50;14.77;;;;;;;;;;5071438;28;20328;-69
2021/09/26 07:52:58;;;;;;;17.00;15.48;;;;;;;;;;5061753;28;20052;-69
2021/09/26 07:55:24;;;;;;;16.13;14.52;;;;;;;;;;5077531;28;20045;-69
2021/09/26 07:57:50;;;;;;;15.55;14.15;;;;;;;;;;5072840;28;20079;-69
2021/09/26 08:00:17;;;;;;;16.20;14.70;;;;;;;;;;5077206;28;20052;-69
2021/09/26 08:02:43;;;;;;;17.42;14.73;;;;;;;;;;5073598;28;20047;-69
2021/09/26 08:05:09;;;;;;;16.17;14.63;;;;;;;;;;5076567;28;20109;-69
2021/09/26 08:07:36;;;;;;;16.15;14.63;;;;;;;;;;5073418;28;20051;-70
2021/09/26 08:10:02;;;;;;;15.13;13.73;;;;;;;;;;5081428;28;20101;-70
2021/09/26 08:12:28;;;;;;;16.25;14.65;;;;;;;;;;5072191;28;20416;-70
2021/09/26 08:14:54;;;;;;;16.67;14.98;;;;;;;;;;5072228;28;20040;-70
2021/09/26 08:17:20;;;;;;;16.55;14.95;;;;;;;;;;5064082;28;20056;-70
2021/09/26 08:19:46;;;;;;;16.05;14.35;;;;;;;;;;5057999;28;20109;-70
2021/09/26 08:22:12;;;;;;;16.42;14.90;;;;;;;;;;5066289;28;20045;-70
2021/09/26 08:24:39;;;;;;;16.30;14.68;;;;;;;;;;5076067;28;20044;-70
2021/09/26 08:27:05;;;;;;;16.90;15.30;;;;;;;;;;5068409;28;20053;-70
2021/09/26 08:29:31;;;;;;;16.65;15.05;;;;;;;;;;5065454;28;20551;-70
2021/09/26 08:31:57;;;;;;;16.20;14.68;;;;;;;;;;5081977;28;20527;-70
2021/09/26 08:34:24;;;;;;;17.33;15.70;;;;;;;;;;5069765;28;20607;-70
2021/09/26 08:36:50;;;;;;;17.17;15.52;;;;;;;;;;5068161;28;20078;-70
2021/09/26 08:39:16;;;;;;;15.93;14.40;;;;;;;;;;5065270;28;20079;-69
2021/09/26 08:41:43;;;;;;;16.67;14.85;;;;;;;;;;5069111;28;20077;-69
2021/09/26 08:44:09;;;;;;;17.63;15.82;;;;;;;;;;5073145;28;20044;-69
2021/09/26 08:46:35;;;;;;;18.02;15.80;;;;;;;;;;5079048;28;20090;-69
2021/09/26 08:49:02;;;;;;;19.95;16.33;;;;;;;;;;5080795;28;20131;-69
2021/09/26 08:51:28;;;;;;;17.25;15.65;;;;;;;;;;5076936;28;20403;-69
2021/09/26 08:53:54;;;;;;;17.83;16.00;;;;;;;;;;5075792;28;20059;-69
2021/09/26 08:56:20;;;;;;;19.25;16.38;;;;;;;;;;5086990;28;20441;-69
2021/09/26 08:58:48;;;;;;;17.73;15.93;;;;;;;;;;5068201;28;20107;-69
2021/09/26 09:01:14;;;;;;;17.55;15.85;;;;;;;;;;5072425;28;20048;-69
2021/09/26 09:03:45;;;;;;;17.80;15.52;;;;;;;;;;5075523;28;20072;-69
2021/09/26 09:06:11;;;;;;;17.50;15.75;;;;;;;;;;5068556;28;20138;-69
2021/09/26 09:08:40;;;;;;;17.20;15.60;;;;;;;;;;5072922;28;20036;-68
2021/09/26 09:11:06;;;;;;;17.90;16.00;;;;;;;;;;5071737;28;20043;-69
2021/09/26 09:13:37;;;;;;;20.00;17.88;;;;;;;;;;5084343;28;20087;-69
2021/09/26 09:16:03;;;;;;;19.27;17.35;;;;;;;;;;5068484;28;20044;-70
2021/09/26 09:18:57;;;;;;;19.98;17.88;;;;;;;;;;5074573;28;20032;-70
2021/09/26 09:21:33;;;;;;;21.48;18.17;;;;;;;;;;5069142;28;20055;-70
2021/09/26 09:24:27;;;;;;;18.85;16.95;;;;;;;;;;5084924;28;20043;-70
2021/09/26 09:26:54;;;;;;;18.83;17.00;;;;;;;;;;5078891;28;20121;-70
2021/09/26 09:29:23;;;;;;;22.75;17.85;;;;;;;;;;5058172;28;20045;-70
2021/09/26 09:31:56;;;;;;;17.92;15.98;;;;;;;;;;5073859;28;20100;-70
2021/09/26 09:34:33;;;;;;;18.73;16.85;;;;;;;;;;5084288;28;20044;-70
2021/09/26 09:37:11;;;;;;;19.60;17.67;;;;;;;;;;5067769;28;20534;-70
2021/09/26 09:39:38;;;;;;;21.00;18.92;;;;;;;;;;5085388;28;20492;-70
2021/09/26 09:42:24;;;;;;;18.30;16.50;;;;;;;;;;5067177;28;20135;-70
2021/09/26 09:44:50;;;;;;;18.77;16.98;;;;;;;;;;5071268;28;20047;-70
2021/09/26 09:47:21;;;;;;;20.50;18.20;;;;;;;;;;5067367;28;20079;-70
2021/09/26 09:49:54;;;;;;;16.88;15.25;;;;;;;;;;5074286;28;20110;-70
2021/09/26 09:52:39;;;;;;;16.97;15.27;;;;;;;;;;5066224;28;20512;-70
2021/09/26 09:55:06;;;;;;;16.58;14.98;;;;;;;;;;5072556;28;20844;-70
2021/09/26 09:57:32;;;;;;;15.98;14.32;;;;;;;;;;5065995;28;20169;-70
2021/09/26 09:59:58;;;;;;;16.05;14.38;;;;;;;;;;5072625;28;20442;-70
2021/09/26 10:02:33;;;;;;;17.85;14.60;;;;;;;;;;5074793;28;20044;-70
2021/09/26 10:05:02;;;;;;;14.98;13.43;;;;;;;;;;5079501;28;20040;-70
2021/09/26 10:07:31;;;;;;;13.88;12.57;;;;;;;;;;5067289;28;20400;-70
2021/09/26 10:09:58;;;;;;;14.02;12.63;;;;;;;;;;5072675;28;20408;-70
2021/09/26 10:12:24;;;;;;;14.52;13.05;;;;;;;;;;5067516;28;20041;-72
2021/09/26 10:14:51;;;;;;;13.85;12.43;;;;;;;;;;5071807;28;20256;-71
2021/09/26 10:17:17;;;;;;;13.20;11.80;;;;;;;;;;5067970;28;20047;-71
2021/09/26 10:19:44;;;;;;;14.07;12.70;;;;;;;;;;5055685;28;20075;-71
2021/09/26 10:22:15;;;;;;;14.05;12.50;;;;;;;;;;5052365;28;20692;-71
2021/09/26 10:24:43;;;;;;;14.43;13.00;;;;;;;;;;5081923;28;20547;-71
2021/09/26 10:27:14;;;;;;;14.75;13.18;;;;;;;;;;5064615;28;20488;-71
2021/09/26 10:29:41;;;;;;;13.25;11.93;;;;;;;;;;5071025;28;20060;-71
2021/09/26 10:32:09;;;;;;;14.75;12.20;;;;;;;;;;5077746;28;20036;-71
2021/09/26 10:34:36;;;;;;;12.63;11.43;;;;;;;;;;5067160;28;20040;-71
2021/09/26 10:37:04;;;;;;;13.88;12.38;;;;;;;;;;5077167;28;20032;-71
2021/09/26 10:39:30;;;;;;;12.30;11.10;;;;;;;;;;5065951;28;20124;-71
2021/09/26 10:42:11;;;;;;;12.45;10.80;;;;;;;;;;5072297;28;20032;-71
2021/09/26 10:44:39;;;;;;;13.63;12.23;;;;;;;;;;5066138;28;20051;-71
2021/09/26 10:47:31;;;;;;;13.20;11.95;;;;;;;;;;5070655;28;20051;-71
2021/09/26 10:50:12;;;;;;;16.08;12.68;;;;;;;;;;5071042;28;20322;-71
2021/09/26 10:52:42;;;;;;;14.73;13.30;;;;;;;;;;5061364;28;20178;-71
2021/09/26 10:55:15;;;;;;;14.40;13.02;;;;;;;;;;5071305;28;20048;-71
2021/09/26 10:57:41;;;;;;;15.23;13.65;;;;;;;;;;5072363;28;20040;-71
2021/09/26 11:00:08;;;;;;;15.75;14.05;;;;;;;;;;5049559;28;20036;-71
2021/09/26 11:02:39;;;;;;;15.80;14.30;;;;;;;;;;5069512;28;20043;-71
2021/09/26 11:05:07;;;;;;;16.17;13.40;;;;;;;;;;5067802;28;20155;-71
2021/09/26 11:07:53;;;;;;;13.93;12.55;;;;;;;;;;5072405;28;20037;-71
2021/09/26 11:10:32;;;;;;;14.90;13.35;;;;;;;;;;5066851;28;20040;-71
2021/09/26 11:13:06;;;;;;;16.15;12.40;;;;;;;;;;5070582;28;20041;-71
2021/09/26 11:15:32;;;;;;;13.55;12.20;;;;;;;;;;5068230;28;20378;-71
2021/09/26 11:17:59;;;;;;;13.77;12.48;;;;;;;;;;5073279;28;20036;-71
2021/09/26 11:20:25;;;;;;;16.08;13.35;;;;;;;;;;5065842;28;20033;-71
2021/09/26 11:23:06;;;;;;;14.32;12.93;;;;;;;;;;5070430;28;20178;-71
2021/09/26 11:25:51;;;;;;;14.52;13.05;;;;;;;;;;5064785;28;20040;-71
2021/09/26 11:28:23;;;;;;;13.27;11.88;;;;;;;;;;5072373;28;20036;-71
2021/09/26 11:30:49;;;;;;;12.93;11.73;;;;;;;;;;5071785;28;20116;-71
2021/09/26 11:33:15;;;;;;;13.65;12.27;;;;;;;;;;5070697;28;20036;-71
2021/09/26 11:35:42;;;;;;;11.82;10.65;;;;;;;;;;5063131;28;20131;-71
2021/09/26 11:38:09;;;;;;;12.60;11.15;;;;;;;;;;5079298;28;20043;-70
2021/09/26 11:40:52;;;;;;;12.60;11.30;;;;;;;;;;5071677;28;20040;-70
2021/09/26 11:43:19;;;;;;;12.57;10.47;;;;;;;;;;5076294;28;20040;-70
2021/09/26 11:45:46;;;;;;;12.60;11.32;;;;;;;;;;5075078;28;20032;-70
2021/09/26 11:48:12;;;;;;;11.93;10.80;;;;;;;;;;5086140;28;20036;-70
2021/09/26 11:50:40;;;;;;;12.52;11.25;;;;;;;;;;5063269;28;20046;-70
2021/09/26 11:53:07;;;;;;;11.90;10.88;;;;;;;;;;5069862;28;20123;-70
2021/09/26 11:55:38;;;;;;;12.48;11.15;;;;;;;;;;5063908;28;20059;-70
2021/09/26 11:58:05;;;;;;;11.90;10.70;;;;;;;;;;5084270;28;20039;-70
2021/09/26 12:00:36;;;;;;;11.07;9.88;;;;;;;;;;5071040;28;20033;-70
2021/09/26 12:03:33;;;;;;;9.70;8.70;;;;;;;;;;5067750;28;20040;-70
2021/09/26 12:05:59;;;;;;;9.77;8.88;;;;;;;;;;5068431;28;20711;-71
2021/09/26 12:08:35;;;;;;;9.25;8.27;;;;;;;;;;5069976;28;20093;-71
2021/09/26 12:11:07;;;;;;;9.77;8.88;;;;;;;;;;5067599;28;20048;-71
2021/09/26 12:13:43;;;;;;;10.13;9.13;;;;;;;;;;5069149;28;20492;-71
2021/09/26 12:16:09;;;;;;;9.60;8.65;;;;;;;;;;5070524;28;20040;-71
2021/09/26 12:18:35;;;;;;;9.00;8.20;;;;;;;;;;5073511;28;20044;-71
2021/09/26 12:21:05;;;;;;;9.80;8.88;;;;;;;;;;5070750;28;20507;-71
2021/09/26 12:23:49;;;;;;;9.05;8.15;;;;;;;;;;5069696;28;20404;-71
2021/09/26 12:26:19;;;;;;;9.10;8.07;;;;;;;;;;5078736;28;20128;-71
2021/09/26 12:28:45;;;;;;;10.68;9.68;;;;;;;;;;5064858;28;20071;-71
2021/09/26 12:31:11;;;;;;;10.30;9.30;;;;;;;;;;5070034;28;20036;-71
2021/09/26 12:33:42;;;;;;;10.43;9.15;;;;;;;;;;5066878;28;20136;-71
2021/09/26 12:36:11;;;;;;;9.50;8.68;;;;;;;;;;5072023;28;20608;-71
2021/09/26 12:38:42;;;;;;;10.63;9.52;;;;;;;;;;5072488;28;20043;-71
2021/09/26 12:41:13;;;;;;;9.95;9.10;;;;;;;;;;5070957;28;20144;-71
2021/09/26 12:43:52;;;;;;;10.10;9.02;;;;;;;;;;5064344;28;20040;-71
2021/09/26 12:46:20;;;;;;;10.30;9.30;;;;;;;;;;5071668;28;20056;-71
2021/09/26 12:48:47;;;;;;;10.02;8.65;;;;;;;;;;5068981;28;20217;-71
2021/09/26 12:51:17;;;;;;;8.57;7.70;;;;;;;;;;5053157;28;20067;-71
2021/09/26 12:53:46;;;;;;;9.15;8.20;;;;;;;;;;5061676;28;20079;-71
2021/09/26 12:56:15;;;;;;;9.57;8.68;;;;;;;;;;5071770;28;20044;-70
2021/09/26 12:58:43;;;;;;;10.25;8.23;;;;;;;;;;5067336;28;20036;-70
2021/09/26 13:01:15;;;;;;;8.85;8.05;;;;;;;;;;5067630;28;20036;-70
2021/09/26 13:03:54;;;;;;;9.80;7.87;;;;;;;;;;5065267;28;20040;-70
2021/09/26 13:06:29;;;;;;;9.23;8.40;;;;;;;;;;5070483;28;20161;-70
2021/09/26 13:08:56;;;;;;;8.90;8.10;;;;;;;;;;5064387;28;20187;-70
2021/09/26 13:11:25;;;;;;;10.32;8.63;;;;;;;;;;5071637;28;20384;-70
2021/09/26 13:14:04;;;;;;;9.48;8.15;;;;;;;;;;5052113;28;20053;-70
2021/09/26 13:16:33;;;;;;;9.30;8.13;;;;;;;;;;5077970;28;20047;-70
2021/09/26 13:19:19;;;;;;;8.63;7.82;;;;;;;;;;5068716;28;20086;-70
2021/09/26 13:21:58;;;;;;;10.35;9.40;;;;;;;;;;5073199;28;20088;-70
2021/09/26 13:24:28;;;;;;;9.93;9.02;;;;;;;;;;5069851;28;20048;-70
2021/09/26 13:26:54;;;;;;;9.50;8.25;;;;;;;;;;5068817;28;20055;-71
2021/09/26 13:29:29;;;;;;;9.60;8.70;;;;;;;;;;5068244;28;20441;-71
2021/09/26 13:31:57;;;;;;;8.70;7.40;;;;;;;;;;5073630;28;20040;-71
2021/09/26 13:34:31;;;;;;;8.07;7.28;;;;;;;;;;5066139;28;20052;-71
2021/09/26 13:37:08;;;;;;;9.35;8.50;;;;;;;;;;5077050;28;20039;-71
2021/09/26 13:39:40;;;;;;;10.52;9.05;;;;;;;;;;5073605;28;20047;-71
2021/09/26 13:42:11;;;;;;;10.65;9.65;;;;;;;;;;5075872;28;20117;-71
2021/09/26 13:44:38;;;;;;;9.35;8.27;;;;;;;;;;5074235;28;20082;-71
2021/09/26 13:47:05;;;;;;;10.07;9.07;;;;;;;;;;5075249;28;20044;-71
2021/09/26 13:49:31;;;;;;;9.38;7.32;;;;;;;;;;5072661;28;20049;-71
2021/09/26 13:51:58;;;;;;;8.95;8.05;;;;;;;;;;5065276;28;20097;-71
2021/09/26 13:54:24;;;;;;;8.73;7.78;;;;;;;;;;5075734;28;20131;-71
2021/09/26 13:56:50;;;;;;;13.13;10.85;;;;;;;;;;5069773;28;20593;-71
2021/09/26 13:59:16;;;;;;;9.55;8.65;;;;;;;;;;5074237;28;20041;-71
2021/09/26 14:01:42;;;;;;;10.15;9.15;;;;;;;;;;5068459;28;20075;-71
2021/09/26 14:04:08;;;;;;;9.13;8.25;;;;;;;;;;5072022;28;20044;-71
2021/09/26 14:06:34;;;;;;;8.85;7.95;;;;;;;;;;5065374;28;20086;-71
2021/09/26 14:09:00;;;;;;;9.10;8.20;;;;;;;;;;5071811;28;20053;-71
2021/09/26 14:11:26;;;;;;;9.32;8.52;;;;;;;;;;5070151;28;20040;-71
2021/09/26 14:13:52;;;;;;;11.98;7.78;;;;;;;;;;5062483;28;20409;-70
2021/09/26 14:16:19;;;;;;;27.90;24.98;;;;;;;;;;5066356;28;20456;-70
2021/09/26 14:18:46;;;;;;;25.90;23.45;;;;;;;;;;5086970;28;20044;-70
2021/09/26 14:21:12;;;;;;;13.43;10.63;;;;;;;;;;5066179;28;20049;-70
2021/09/26 14:23:40;;;;;;;10.10;9.07;;;;;;;;;;5072935;28;20043;-70
2021/09/26 14:26:07;;;;;;;11.15;10.00;;;;;;;;;;5076209;28;20068;-70